Time;durP1;ratioP1;P1;durP2;ratioP2;P2;SDS_P1;SDS_P2;PMS_P1;PMS_P2;Temp;Humidity;BMP_temperature;BMP_pressure;BME280_temperature;BME280_humidity;BME280_pressure;Samples;Min_cycle;Max_cycle;Signal;HPM_P1;HPM_P2
2022/09/10 00:01:01;;;;;;;0.00;0.00;;;14.20;99.90;;;;;;5041558;28;20271;-72
2022/09/10 00:03:30;;;;;;;0.00;0.00;;;14.20;99.90;;;;;;5050604;22;20254;-73
2022/09/10 00:05:58;;;;;;;0.00;0.00;;;14.20;99.90;;;;;;5024706;28;20258;-72
2022/09/10 00:08:26;;;;;;;0.00;0.00;;;14.10;99.90;;;;;;5026883;28;20204;-72
2022/09/10 00:10:54;;;;;;;0.00;0.00;;;14.10;99.90;;;;;;5022607;28;20282;-73
2022/09/10 00:13:22;;;;;;;0.00;0.00;;;14.00;99.90;;;;;;5013025;28;20273;-72
2022/09/10 00:15:53;;;;;;;0.00;0.00;;;14.00;99.90;;;;;;5024871;28;20717;-72
2022/09/10 00:18:22;;;;;;;0.10;0.10;;;14.00;99.90;;;;;;5023094;28;20202;-72
2022/09/10 00:20:54;;;;;;;0.10;0.10;;;13.90;99.90;;;;;;5022826;28;20199;-72
2022/09/10 00:23:24;;;;;;;0.00;0.00;;;13.90;99.90;;;;;;5025038;28;20218;-73
2022/09/10 00:25:53;;;;;;;0.00;0.00;;;14.00;99.90;;;;;;5023266;28;20250;-73
2022/09/10 00:28:23;;;;;;;0.00;0.00;;;13.90;99.90;;;;;;5021883;28;20860;-73
2022/09/10 00:30:53;;;;;;;0.00;0.00;;;13.90;99.90;;;;;;5029516;28;20678;-71
2022/09/10 00:33:22;;;;;;;0.10;0.10;;;13.90;99.90;;;;;;5023863;28;20297;-70
2022/09/10 00:35:52;;;;;;;0.00;0.00;;;14.00;99.90;;;;;;5025934;28;20229;-71
2022/09/10 00:38:19;;;;;;;0.00;0.00;;;14.00;99.90;;;;;;5024051;28;20207;-71
2022/09/10 00:40:48;;;;;;;0.10;0.10;;;14.00;99.90;;;;;;5025104;28;20191;-73
2022/09/10 00:43:19;;;;;;;0.00;0.00;;;13.90;99.90;;;;;;5003605;28;20223;-71
2022/09/10 00:45:49;;;;;;;0.00;0.00;;;13.90;99.90;;;;;;5004422;28;20192;-71
2022/09/10 00:48:22;;;;;;;0.00;0.00;;;13.90;99.90;;;;;;5021891;28;20200;-74
2022/09/10 00:50:51;;;;;;;0.00;0.00;;;14.00;99.90;;;;;;5022520;28;20689;-72
2022/09/10 00:53:23;;;;;;;0.10;0.10;;;14.00;99.90;;;;;;5023766;28;20257;-72
2022/09/10 00:55:53;;;;;;;0.00;0.00;;;14.00;99.90;;;;;;5024989;28;20246;-72
2022/09/10 00:58:23;;;;;;;0.00;0.00;;;14.00;99.90;;;;;;5023021;28;20683;-71
2022/09/10 01:00:56;;;;;;;0.10;0.10;;;14.10;99.90;;;;;;5004538;28;20211;-72
2022/09/10 01:03:24;;;;;;;0.00;0.00;;;14.10;99.90;;;;;;5006521;28;20646;-73
2022/09/10 01:05:53;;;;;;;0.00;0.00;;;14.10;99.90;;;;;;5005328;28;20254;-72
2022/09/10 01:08:22;;;;;;;0.10;0.10;;;14.10;99.90;;;;;;5023905;28;20204;-73
2022/09/10 01:11:06;;;;;;;0.00;0.00;;;14.10;99.90;;;;;;5004721;28;20200;-71
2022/09/10 01:13:47;;;;;;;0.00;0.00;;;14.10;99.90;;;;;;5022077;28;20265;-71
2022/09/10 01:16:23;;;;;;;0.00;0.00;;;14.10;99.90;;;;;;5022212;28;20222;-70
2022/09/10 01:18:58;;;;;;;0.00;0.00;;;14.10;99.90;;;;;;5005777;28;20264;-70
2022/09/10 01:21:32;;;;;;;0.10;0.10;;;14.30;99.90;;;;;;5004028;28;20203;-71
2022/09/10 01:24:28;;;;;;;0.00;0.00;;;14.20;99.90;;;;;;5020730;28;20693;-70
2022/09/10 01:27:42;;;;;;;0.00;0.00;;;14.30;99.90;;;;;;5010189;28;20239;-71
2022/09/10 01:30:16;;;;;;;0.10;0.10;;;14.20;99.90;;;;;;5012116;28;20234;-70
2022/09/10 01:33:03;;;;;;;0.00;0.00;;;14.30;99.90;;;;;;5021728;28;20219;-74
2022/09/10 01:35:39;;;;;;;0.00;0.00;;;14.30;99.90;;;;;;5004448;28;20269;-72
2022/09/10 01:38:12;;;;;;;0.05;0.05;;;14.20;99.90;;;;;;5003974;28;20981;-71
2022/09/10 01:40:41;;;;;;;0.00;0.00;;;14.30;99.90;;;;;;5005464;28;20226;-72
2022/09/10 01:43:14;;;;;;;0.00;0.00;;;14.20;99.90;;;;;;5003736;28;20706;-72
2022/09/10 01:46:04;;;;;;;0.00;0.00;;;14.10;99.90;;;;;;5022036;28;20250;-71
2022/09/10 01:48:52;;;;;;;0.00;0.00;;;14.00;99.90;;;;;;5021384;28;20195;-71
2022/09/10 01:51:27;;;;;;;0.00;0.00;;;13.90;99.90;;;;;;5022426;28;20192;-72
2022/09/10 01:54:10;;;;;;;0.00;0.00;;;13.90;99.90;;;;;;5021674;28;20234;-71
2022/09/10 01:56:45;;;;;;;0.00;0.00;;;13.90;99.90;;;;;;5004031;28;20231;-71
2022/09/10 01:59:26;;;;;;;0.00;0.00;;;13.90;99.90;;;;;;5003941;28;20668;-70
2022/09/10 02:02:02;;;;;;;0.00;0.00;;;13.90;99.90;;;;;;5004451;28;20234;-71
2022/09/10 02:04:31;;;;;;;0.00;0.00;;;13.90;99.90;;;;;;5004128;28;20261;-72
2022/09/10 02:06:59;;;;;;;0.10;0.10;;;13.90;99.90;;;;;;5003299;28;20199;-72
2022/09/10 02:09:27;;;;;;;0.10;0.10;;;14.00;99.90;;;;;;5004424;28;20206;-71
2022/09/10 02:11:56;;;;;;;0.00;0.00;;;14.00;99.90;;;;;;5001406;28;20234;-72
2022/09/10 02:14:48;;;;;;;0.10;0.10;;;14.00;99.90;;;;;;5007000;28;20204;-73
2022/09/10 02:17:25;;;;;;;0.00;0.00;;;14.00;99.90;;;;;;5002347;28;20645;-74
2022/09/10 02:19:54;;;;;;;0.00;0.00;;;14.00;99.90;;;;;;5010419;28;20207;-72
2022/09/10 02:22:24;;;;;;;0.00;0.00;;;14.00;99.90;;;;;;5003483;28;20697;-72
2022/09/10 02:24:52;;;;;;;0.00;0.00;;;14.00;99.90;;;;;;5002186;28;20199;-72
2022/09/10 02:27:20;;;;;;;0.00;0.00;;;14.10;99.90;;;;;;5021845;28;20246;-73
2022/09/10 02:29:50;;;;;;;0.00;0.00;;;14.10;99.90;;;;;;5002074;28;20207;-73
2022/09/10 02:32:17;;;;;;;0.00;0.00;;;14.10;99.90;;;;;;5003641;28;20226;-72
2022/09/10 02:34:45;;;;;;;0.00;0.00;;;14.10;99.90;;;;;;5002868;28;20290;-74
2022/09/10 02:37:15;;;;;;;0.00;0.00;;;14.20;99.90;;;;;;5001907;28;20305;-71
2022/09/10 02:39:43;;;;;;;0.00;0.00;;;14.30;99.90;;;;;;5000922;28;20978;-72
2022/09/10 02:42:16;;;;;;;0.10;0.10;;;14.40;99.90;;;;;;5020010;28;20298;-71
2022/09/10 02:44:46;;;;;;;0.00;0.00;;;14.40;99.90;;;;;;5003117;28;20206;-72
2022/09/10 02:47:18;;;;;;;0.00;0.00;;;14.40;99.90;;;;;;5008489;28;20196;-72
2022/09/10 02:49:46;;;;;;;0.00;0.00;;;14.40;99.90;;;;;;5010327;28;20334;-72
2022/09/10 02:52:14;;;;;;;0.00;0.00;;;14.40;99.90;;;;;;5003055;28;20238;-72
2022/09/10 02:54:42;;;;;;;0.00;0.00;;;14.40;99.90;;;;;;5003812;28;20287;-72
2022/09/10 02:57:11;;;;;;;0.00;0.00;;;14.40;99.90;;;;;;5002595;28;20223;-72
2022/09/10 02:59:38;;;;;;;0.00;0.00;;;14.30;99.90;;;;;;5002502;28;20297;-73
2022/09/10 03:02:06;;;;;;;0.00;0.00;;;14.30;99.90;;;;;;5001486;28;20234;-72
2022/09/10 03:04:36;;;;;;;0.00;0.00;;;14.20;99.90;;;;;;5003113;28;20207;-73
2022/09/10 03:07:04;;;;;;;0.00;0.00;;;14.20;99.90;;;;;;5003405;28;20818;-72
2022/09/10 03:09:34;;;;;;;0.00;0.00;;;14.20;99.90;;;;;;5002403;28;20203;-72
2022/09/10 03:12:04;;;;;;;0.00;0.00;;;14.10;99.90;;;;;;5002839;28;20261;-72
2022/09/10 03:14:33;;;;;;;0.10;0.10;;;14.10;99.90;;;;;;5001754;28;20200;-72
2022/09/10 03:17:01;;;;;;;0.00;0.00;;;14.10;99.90;;;;;;5002612;28;20227;-72
2022/09/10 03:19:30;;;;;;;0.00;0.00;;;14.10;99.90;;;;;;5008283;28;20212;-73
2022/09/10 03:22:00;;;;;;;0.00;0.00;;;14.00;99.90;;;;;;5002179;28;20224;-72
2022/09/10 03:24:28;;;;;;;0.00;0.00;;;14.00;99.90;;;;;;5020587;28;20199;-72
2022/09/10 03:26:57;;;;;;;0.10;0.10;;;14.00;99.90;;;;;;5020333;28;20200;-73
2022/09/10 03:29:25;;;;;;;0.00;0.00;;;14.10;99.90;;;;;;5021778;28;20686;-72
2022/09/10 03:31:53;;;;;;;0.00;0.00;;;14.10;99.90;;;;;;5008721;28;20227;-73
2022/09/10 03:34:21;;;;;;;0.00;0.00;;;14.20;99.90;;;;;;5022387;28;20250;-72
2022/09/10 03:36:50;;;;;;;0.00;0.00;;;14.30;99.90;;;;;;5007121;28;20225;-73
2022/09/10 03:39:19;;;;;;;0.00;0.00;;;14.30;99.90;;;;;;5037299;28;20213;-73
2022/09/10 03:41:47;;;;;;;0.00;0.00;;;14.30;99.90;;;;;;5021577;28;20203;-73
2022/09/10 03:44:16;;;;;;;0.00;0.00;;;14.30;99.90;;;;;;5021300;28;20283;-74
2022/09/10 03:46:44;;;;;;;0.10;0.10;;;14.40;99.90;;;;;;5019667;28;20195;-72
2022/09/10 03:49:16;;;;;;;0.00;0.00;;;14.30;99.90;;;;;;5017465;28;20199;-72
2022/09/10 03:51:44;;;;;;;0.00;0.00;;;14.40;99.90;;;;;;5036462;28;20227;-73
2022/09/10 03:54:14;;;;;;;0.00;0.00;;;14.40;99.90;;;;;;5015982;28;20565;-72
2022/09/10 03:56:46;;;;;;;0.00;0.00;;;14.40;99.90;;;;;;5018073;28;20593;-72
2022/09/10 03:59:14;;;;;;;0.10;0.10;;;14.40;99.90;;;;;;5032057;28;20694;-72
2022/09/10 04:01:42;;;;;;;0.03;0.03;;;14.40;99.90;;;;;;5010640;28;20230;-73
2022/09/10 04:04:11;;;;;;;0.00;0.00;;;14.50;99.90;;;;;;5006434;28;20204;-73
2022/09/10 04:06:39;;;;;;;0.10;0.10;;;14.50;99.90;;;;;;5005536;28;20246;-73
2022/09/10 04:09:07;;;;;;;0.00;0.00;;;14.50;99.90;;;;;;5022621;28;20249;-73
2022/09/10 04:11:35;;;;;;;0.00;0.00;;;14.40;99.90;;;;;;5006001;28;20206;-73
2022/09/10 04:14:04;;;;;;;0.00;0.00;;;14.40;99.90;;;;;;5014253;28;20237;-72
2022/09/10 04:16:36;;;;;;;0.00;0.00;;;14.40;99.90;;;;;;5013834;28;20223;-73
2022/09/10 04:19:05;;;;;;;0.00;0.00;;;14.20;99.90;;;;;;5005914;28;20221;-74
2022/09/10 04:21:34;;;;;;;0.00;0.00;;;14.10;99.90;;;;;;5004728;28;20207;-73
2022/09/10 04:24:02;;;;;;;0.10;0.10;;;14.10;99.90;;;;;;5024289;28;20662;-73
2022/09/10 04:26:30;;;;;;;0.00;0.00;;;14.10;99.90;;;;;;5005503;28;20233;-72
2022/09/10 04:28:58;;;;;;;0.00;0.00;;;14.10;99.90;;;;;;5022933;28;20614;-73
2022/09/10 04:31:27;;;;;;;0.00;0.00;;;14.20;99.90;;;;;;5022753;28;20242;-74
2022/09/10 04:34:00;;;;;;;0.00;0.00;;;14.20;99.90;;;;;;5025432;28;20269;-72
2022/09/10 04:36:29;;;;;;;0.03;0.03;;;14.30;99.90;;;;;;5006322;28;20215;-73
2022/09/10 04:38:57;;;;;;;0.10;0.10;;;14.40;99.90;;;;;;5005772;28;20203;-72
2022/09/10 04:41:26;;;;;;;0.00;0.00;;;14.40;99.90;;;;;;5006048;28;20258;-72
2022/09/10 04:43:54;;;;;;;0.00;0.00;;;14.40;99.90;;;;;;5005558;28;20233;-72
2022/09/10 04:46:23;;;;;;;0.10;0.10;;;14.40;99.90;;;;;;5005063;28;20207;-73
2022/09/10 04:48:54;;;;;;;0.00;0.00;;;14.40;99.90;;;;;;5006187;28;20223;-73
2022/09/10 04:51:24;;;;;;;0.05;0.05;;;14.50;99.90;;;;;;5028084;28;20203;-73
2022/09/10 04:53:54;;;;;;;0.10;0.10;;;14.50;99.90;;;;;;5008171;28;20433;-73
2022/09/10 04:56:27;;;;;;;0.00;0.00;;;14.40;99.90;;;;;;5004969;28;20199;-74
2022/09/10 04:58:55;;;;;;;0.00;0.00;;;14.50;99.90;;;;;;5004866;28;20231;-73
2022/09/10 05:01:23;;;;;;;0.00;0.00;;;14.40;99.90;;;;;;5005838;28;20230;-73
2022/09/10 05:03:54;;;;;;;0.00;0.00;;;14.40;99.90;;;;;;5005317;28;20628;-72
2022/09/10 05:06:23;;;;;;;0.00;0.00;;;14.40;99.90;;;;;;5022814;28;20191;-72
2022/09/10 05:08:50;;;;;;;0.00;0.00;;;14.30;99.90;;;;;;5022375;28;20196;-73
2022/09/10 05:11:19;;;;;;;0.10;0.10;;;14.30;99.90;;;;;;5028549;28;20223;-73
2022/09/10 05:13:48;;;;;;;0.00;0.00;;;14.30;99.90;;;;;;5006472;28;20223;-73
2022/09/10 05:16:20;;;;;;;0.10;0.10;;;14.40;99.90;;;;;;5031822;28;20207;-72
2022/09/10 05:18:48;;;;;;;0.00;0.00;;;14.40;99.90;;;;;;5035936;28;20220;-71
2022/09/10 05:21:19;;;;;;;0.00;0.00;;;14.40;99.90;;;;;;5019098;28;20199;-72
2022/09/10 05:23:47;;;;;;;0.00;0.00;;;14.40;99.90;;;;;;5015375;28;20224;-72
2022/09/10 05:26:15;;;;;;;0.10;0.10;;;14.40;99.90;;;;;;5015974;28;20190;-72
2022/09/10 05:28:43;;;;;;;0.10;0.10;;;14.40;99.90;;;;;;5022695;28;20191;-73
2022/09/10 05:31:16;;;;;;;0.00;0.00;;;14.40;99.90;;;;;;5021594;28;20206;-72
2022/09/10 05:33:45;;;;;;;0.00;0.00;;;14.40;99.90;;;;;;5028674;28;20222;-71
2022/09/10 05:36:13;;;;;;;0.00;0.00;;;14.50;99.90;;;;;;5025609;28;20642;-71
2022/09/10 05:38:44;;;;;;;0.00;0.00;;;14.40;99.90;;;;;;5042754;28;20591;-74
2022/09/10 05:41:13;;;;;;;0.10;0.10;;;14.30;99.90;;;;;;5031537;28;20253;-73
2022/09/10 05:43:47;;;;;;;0.10;0.10;;;14.30;99.90;;;;;;5015166;28;20253;-72
2022/09/10 05:46:14;;;;;;;0.00;0.00;;;14.40;99.90;;;;;;4995708;28;20203;-72
2022/09/10 05:48:46;;;;;;;0.03;0.03;;;14.40;99.90;;;;;;4995396;28;20667;-72
2022/09/10 05:51:14;;;;;;;0.10;0.10;;;14.50;99.90;;;;;;4996932;28;20798;-72
2022/09/10 05:53:45;;;;;;;0.00;0.00;;;14.50;99.90;;;;;;4998686;28;20227;-72
2022/09/10 05:56:13;;;;;;;0.00;0.00;;;14.50;99.90;;;;;;5013086;28;20195;-73
2022/09/10 05:58:43;;;;;;;0.03;0.03;;;14.60;99.90;;;;;;4995033;28;20231;-73
2022/09/10 06:01:14;;;;;;;0.10;0.10;;;14.60;99.90;;;;;;4995316;28;20203;-72
2022/09/10 06:03:43;;;;;;;0.00;0.00;;;14.70;99.90;;;;;;5029136;23;20242;-74
2022/09/10 06:06:11;;;;;;;0.00;0.00;;;14.80;99.90;;;;;;5023820;28;20197;-74
2022/09/10 06:08:49;;;;;;;0.00;0.00;;;14.80;99.90;;;;;;5006091;28;20538;-75
2022/09/10 06:11:25;;;;;;;0.10;0.10;;;14.80;99.90;;;;;;5018401;28;20253;-75
2022/09/10 06:13:53;;;;;;;0.00;0.00;;;14.80;99.90;;;;;;5016881;28;20687;-75
2022/09/10 06:16:21;;;;;;;0.00;0.00;;;14.90;99.90;;;;;;5017592;28;20676;-75
2022/09/10 06:18:49;;;;;;;0.10;0.10;;;14.90;99.90;;;;;;5028476;28;20216;-74
2022/09/10 06:21:23;;;;;;;0.00;0.00;;;15.00;99.90;;;;;;5047953;28;20199;-75
2022/09/10 06:23:57;;;;;;;0.00;0.00;;;15.00;99.90;;;;;;5031129;28;20219;-74
2022/09/10 06:26:28;;;;;;;0.00;0.00;;;14.90;99.90;;;;;;5048743;28;20234;-75
2022/09/10 06:28:59;;;;;;;0.00;0.00;;;14.90;99.90;;;;;;5057683;28;20180;-73
2022/09/10 06:31:28;;;;;;;0.00;0.00;;;14.90;99.90;;;;;;5062348;28;20234;-73
2022/09/10 06:33:56;;;;;;;0.00;0.00;;;14.90;99.90;;;;;;5062996;28;20207;-73
2022/09/10 06:36:28;;;;;;;0.00;0.00;;;14.90;99.90;;;;;;5045822;28;20206;-73
2022/09/10 06:38:58;;;;;;;0.10;0.10;;;14.90;99.90;;;;;;5021431;28;20226;-74
2022/09/10 06:41:29;;;;;;;0.00;0.00;;;15.00;99.90;;;;;;5028167;28;20298;-74
2022/09/10 06:44:05;;;;;;;0.00;0.00;;;15.10;99.90;;;;;;5029733;28;20273;-74
2022/09/10 06:46:41;;;;;;;0.00;0.00;;;15.10;99.90;;;;;;5028498;28;20206;-74
2022/09/10 06:49:30;;;;;;;0.10;0.10;;;15.10;99.90;;;;;;5026519;28;20215;-74
2022/09/10 06:51:58;;;;;;;0.10;0.10;;;15.10;99.90;;;;;;5032192;28;20230;-73
2022/09/10 06:54:28;;;;;;;0.00;0.00;;;15.10;99.90;;;;;;5034056;28;20290;-73
2022/09/10 06:57:00;;;;;;;0.10;0.10;;;15.10;99.90;;;;;;5022226;28;20194;-74
2022/09/10 06:59:30;;;;;;;0.00;0.00;;;15.20;99.90;;;;;;5026994;28;20589;-74
2022/09/10 07:01:59;;;;;;;0.00;0.00;;;15.20;99.90;;;;;;5029114;28;20286;-74
2022/09/10 07:04:27;;;;;;;0.00;0.00;;;15.20;99.90;;;;;;5029015;28;20206;-74
2022/09/10 07:06:58;;;;;;;0.00;0.00;;;15.20;99.90;;;;;;5009692;28;20200;-73
2022/09/10 07:09:27;;;;;;;0.10;0.10;;;15.20;99.90;;;;;;5014354;28;20187;-75
2022/09/10 07:11:58;;;;;;;0.00;0.00;;;15.30;99.90;;;;;;5016145;28;20203;-75
2022/09/10 07:14:29;;;;;;;0.10;0.10;;;15.30;99.90;;;;;;5028421;28;20637;-74
2022/09/10 07:16:57;;;;;;;0.00;0.00;;;15.40;99.90;;;;;;5029314;28;20230;-74
2022/09/10 07:19:28;;;;;;;0.00;0.00;;;15.30;99.90;;;;;;5027485;28;20235;-75
2022/09/10 07:21:56;;;;;;;0.00;0.00;;;15.30;99.90;;;;;;5024432;28;20297;-74
2022/09/10 07:24:25;;;;;;;0.10;0.10;;;15.30;99.90;;;;;;5012241;28;20211;-75
2022/09/10 07:27:11;;;;;;;0.00;0.00;;;15.30;99.90;;;;;;5011373;28;20216;-73
2022/09/10 07:29:41;;;;;;;0.00;0.00;;;15.40;99.90;;;;;;5026696;28;20211;-73
2022/09/10 07:32:14;;;;;;;0.00;0.00;;;15.30;99.90;;;;;;5009319;28;20729;-74
2022/09/10 07:34:41;;;;;;;0.00;0.00;;;15.30;99.90;;;;;;5020919;28;20264;-75
2022/09/10 07:37:14;;;;;;;0.00;0.00;;;15.30;99.90;;;;;;5025207;28;20219;-75
2022/09/10 07:39:42;;;;;;;0.00;0.00;;;15.30;99.90;;;;;;5002036;28;20320;-75
2022/09/10 07:42:13;;;;;;;0.00;0.00;;;15.40;99.90;;;;;;5026253;28;20257;-75
2022/09/10 07:44:41;;;;;;;0.00;0.00;;;15.40;99.90;;;;;;4996038;28;20593;-76
2022/09/10 07:47:09;;;;;;;0.10;0.10;;;15.40;99.90;;;;;;5031369;28;20740;-76
2022/09/10 07:49:37;;;;;;;0.00;0.00;;;15.40;99.90;;;;;;5019903;28;20626;-75
2022/09/10 07:52:06;;;;;;;0.00;0.00;;;15.40;99.90;;;;;;5031813;28;20644;-75
2022/09/10 07:54:42;;;;;;;0.00;0.00;;;15.40;99.90;;;;;;5030581;28;20254;-74
2022/09/10 07:57:12;;;;;;;0.10;0.10;;;15.40;99.90;;;;;;5010227;28;20208;-74
2022/09/10 07:59:40;;;;;;;0.00;0.00;;;15.40;99.90;;;;;;5026032;28;20208;-75
2022/09/10 08:02:09;;;;;;;0.00;0.00;;;15.50;99.90;;;;;;5025181;28;20203;-75
2022/09/10 08:04:38;;;;;;;0.00;0.00;;;15.40;99.90;;;;;;5007185;28;20200;-76
2022/09/10 08:07:10;;;;;;;0.00;0.00;;;15.50;99.90;;;;;;5021646;28;20290;-75
2022/09/10 08:09:42;;;;;;;0.10;0.10;;;15.40;99.90;;;;;;5010087;28;20565;-76
2022/09/10 08:12:16;;;;;;;0.00;0.00;;;15.50;99.90;;;;;;5009309;28;20250;-76
2022/09/10 08:14:45;;;;;;;0.00;0.00;;;15.50;99.90;;;;;;4991811;28;20200;-76
2022/09/10 08:17:13;;;;;;;0.00;0.00;;;15.70;99.90;;;;;;5006459;28;20197;-75
2022/09/10 08:19:43;;;;;;;0.00;0.00;;;15.80;99.90;;;;;;5020932;28;20211;-75
2022/09/10 08:22:13;;;;;;;0.00;0.00;;;15.90;99.90;;;;;;5005282;28;20291;-76
2022/09/10 08:24:47;;;;;;;0.00;0.00;;;16.00;99.90;;;;;;5029638;28;20558;-76
2022/09/10 08:27:17;;;;;;;0.00;0.00;;;16.20;99.90;;;;;;5030558;28;20571;-75
2022/09/10 08:29:46;;;;;;;0.00;0.00;;;16.30;99.90;;;;;;5031808;28;20196;-76
2022/09/10 08:32:14;;;;;;;0.00;0.00;;;16.20;99.90;;;;;;5030435;28;20195;-76
2022/09/10 08:34:42;;;;;;;0.00;0.00;;;16.20;99.90;;;;;;5008666;28;20266;-76
2022/09/10 08:37:12;;;;;;;0.00;0.00;;;16.20;99.90;;;;;;5016576;28;20215;-74
2022/09/10 08:39:40;;;;;;;0.00;0.00;;;16.30;99.90;;;;;;5012391;28;20306;-76
2022/09/10 08:42:16;;;;;;;0.00;0.00;;;16.30;99.90;;;;;;5028891;28;20929;-75
2022/09/10 08:44:50;;;;;;;0.00;0.00;;;16.20;99.90;;;;;;5029669;28;20250;-75
2022/09/10 08:47:31;;;;;;;0.00;0.00;;;16.20;99.90;;;;;;5033647;28;20276;-75
2022/09/10 08:50:12;;;;;;;0.00;0.00;;;16.10;99.90;;;;;;5016726;28;20821;-75
2022/09/10 08:52:47;;;;;;;0.00;0.00;;;16.00;99.90;;;;;;5030825;28;20230;-75
2022/09/10 08:55:27;;;;;;;0.00;0.00;;;16.10;99.90;;;;;;5034927;28;20202;-75
2022/09/10 08:57:59;;;;;;;0.00;0.00;;;16.00;99.90;;;;;;5042519;28;20231;-75
2022/09/10 09:00:33;;;;;;;0.00;0.00;;;16.20;99.90;;;;;;5020383;28;20242;-74
2022/09/10 09:03:11;;;;;;;0.00;0.00;;;16.20;99.90;;;;;;5036895;28;20278;-74
2022/09/10 09:05:45;;;;;;;0.08;0.08;;;16.20;99.90;;;;;;5012083;28;20207;-75
2022/09/10 09:08:17;;;;;;;0.00;0.00;;;16.40;99.90;;;;;;5012627;28;20204;-74
2022/09/10 09:10:50;;;;;;;0.00;0.00;;;16.50;99.90;;;;;;5028730;28;20204;-74
2022/09/10 09:13:37;;;;;;;0.00;0.00;;;16.60;99.90;;;;;;5011583;28;20764;-75
2022/09/10 09:16:20;;;;;;;0.00;0.00;;;16.50;99.90;;;;;;4994486;28;20741;-75
2022/09/10 09:19:01;;;;;;;0.00;0.00;;;16.60;99.90;;;;;;4992509;28;20671;-75
2022/09/10 09:21:40;;;;;;;0.00;0.00;;;16.70;99.90;;;;;;5026996;28;20196;-74
2022/09/10 09:24:18;;;;;;;0.00;0.00;;;16.70;99.90;;;;;;5029018;28;20223;-75
2022/09/10 09:26:53;;;;;;;0.00;0.00;;;16.80;99.90;;;;;;5018433;28;20222;-75
2022/09/10 09:29:27;;;;;;;0.00;0.00;;;16.90;99.90;;;;;;5016022;28;20203;-75
2022/09/10 09:32:01;;;;;;;0.00;0.00;;;16.90;99.90;;;;;;5015290;28;20261;-75
2022/09/10 09:34:35;;;;;;;0.00;0.00;;;17.10;99.90;;;;;;5028840;28;20199;-75
2022/09/10 09:37:15;;;;;;;0.08;0.08;;;17.20;99.90;;;;;;5014017;28;20211;-74
2022/09/10 09:39:52;;;;;;;0.00;0.00;;;17.30;99.90;;;;;;5012636;28;20203;-74
2022/09/10 09:42:28;;;;;;;0.00;0.00;;;17.50;99.90;;;;;;5004938;28;20310;-74
2022/09/10 09:45:02;;;;;;;0.00;0.00;;;17.60;99.90;;;;;;5045955;28;20571;-75
2022/09/10 09:47:32;;;;;;;0.00;0.00;;;17.60;99.90;;;;;;5030311;28;20258;-74
2022/09/10 09:50:00;;;;;;;0.00;0.00;;;17.50;99.90;;;;;;5012539;28;20195;-74
2022/09/10 09:52:30;;;;;;;0.00;0.00;;;17.40;99.90;;;;;;5013374;28;20220;-75
2022/09/10 09:55:04;;;;;;;0.00;0.00;;;17.50;99.90;;;;;;5012489;28;20254;-74
2022/09/10 09:57:47;;;;;;;0.00;0.00;;;17.40;99.90;;;;;;5012504;28;20203;-75
2022/09/10 10:00:36;;;;;;;0.00;0.00;;;17.10;99.90;;;;;;5013705;28;20223;-74
2022/09/10 10:03:15;;;;;;;0.00;0.00;;;17.10;99.90;;;;;;5013553;28;20231;-75
2022/09/10 10:05:43;;;;;;;0.03;0.03;;;16.90;99.90;;;;;;5012592;28;20199;-74
2022/09/10 10:08:29;;;;;;;0.00;0.00;;;17.00;99.90;;;;;;5013802;28;20258;-74
2022/09/10 10:10:59;;;;;;;0.00;0.00;;;17.10;99.90;;;;;;5016987;28;20202;-74
2022/09/10 10:13:37;;;;;;;0.00;0.00;;;17.20;99.90;;;;;;5011546;28;20690;-75
2022/09/10 10:16:17;;;;;;;0.00;0.00;;;17.30;99.90;;;;;;5011839;28;20195;-75
2022/09/10 10:18:46;;;;;;;0.00;0.00;;;17.50;99.90;;;;;;5032389;28;20196;-73
2022/09/10 10:21:20;;;;;;;0.00;0.00;;;17.50;99.90;;;;;;5012315;28;20776;-74
2022/09/10 10:23:48;;;;;;;0.00;0.00;;;17.60;99.90;;;;;;5005421;28;20247;-74
2022/09/10 10:26:29;;;;;;;0.00;0.00;;;17.70;99.90;;;;;;5003991;28;20258;-75
2022/09/10 10:29:00;;;;;;;0.00;0.00;;;17.80;99.90;;;;;;5025183;28;20210;-74
2022/09/10 10:31:37;;;;;;;0.00;0.00;;;17.90;99.90;;;;;;5022708;28;20192;-75
2022/09/10 10:34:22;;;;;;;0.00;0.00;;;17.80;99.90;;;;;;5011299;28;20860;-75
2022/09/10 10:36:58;;;;;;;0.00;0.00;;;17.80;99.90;;;;;;5004454;28;20200;-74
2022/09/10 10:39:44;;;;;;;0.00;0.00;;;17.90;99.90;;;;;;5027150;28;20749;-75
2022/09/10 10:42:24;;;;;;;0.00;0.00;;;18.00;99.90;;;;;;5013369;28;20226;-74
2022/09/10 10:45:07;;;;;;;0.00;0.00;;;17.90;99.90;;;;;;5012555;28;20214;-73
2022/09/10 10:47:47;;;;;;;0.00;0.00;;;17.90;99.90;;;;;;5001992;28;20562;-75
2022/09/10 10:50:28;;;;;;;0.00;0.00;;;17.90;99.90;;;;;;5033999;28;20215;-74
2022/09/10 10:53:14;;;;;;;0.00;0.00;;;18.10;99.90;;;;;;5031532;28;20218;-74
2022/09/10 10:55:46;;;;;;;0.00;0.00;;;18.20;99.90;;;;;;5030896;28;20214;-75
2022/09/10 10:58:30;;;;;;;0.00;0.00;;;18.40;99.90;;;;;;5032016;28;20195;-74
2022/09/10 11:01:05;;;;;;;0.00;0.00;;;18.40;99.90;;;;;;5035388;28;20203;-75
2022/09/10 11:03:43;;;;;;;0.00;0.00;;;18.70;99.90;;;;;;5033147;28;20238;-76
2022/09/10 11:06:15;;;;;;;0.00;0.00;;;18.90;99.90;;;;;;5030121;28;20202;-75
2022/09/10 11:08:49;;;;;;;0.00;0.00;;;19.00;99.90;;;;;;5031379;28;20199;-76
2022/09/10 11:11:22;;;;;;;0.00;0.00;;;19.00;99.90;;;;;;5031259;28;20194;-76
2022/09/10 11:13:55;;;;;;;0.00;0.00;;;19.20;99.90;;;;;;5031736;28;20223;-75
2022/09/10 11:16:27;;;;;;;0.00;0.00;;;19.40;99.90;;;;;;5031608;28;20226;-75
2022/09/10 11:19:01;;;;;;;0.00;0.00;;;19.80;99.90;;;;;;5031515;28;20701;-75
2022/09/10 11:21:37;;;;;;;0.00;0.00;;;19.70;99.90;;;;;;5031623;28;20764;-75
2022/09/10 11:24:10;;;;;;;0.00;0.00;;;19.80;99.90;;;;;;5032095;28;20222;-76
2022/09/10 11:26:47;;;;;;;0.00;0.00;;;19.80;99.90;;;;;;5031851;28;20229;-75
2022/09/10 11:29:28;;;;;;;0.00;0.00;;;20.20;99.90;;;;;;5032060;28;20245;-75
2022/09/10 11:32:02;;;;;;;0.00;0.00;;;20.20;99.90;;;;;;5032044;28;20194;-76
2022/09/10 11:34:37;;;;;;;0.00;0.00;;;20.10;99.90;;;;;;5031679;28;20227;-76
2022/09/10 11:37:15;;;;;;;0.00;0.00;;;20.00;99.90;;;;;;5031075;28;20202;-73
2022/09/10 11:39:47;;;;;;;0.00;0.00;;;20.00;99.90;;;;;;5031265;28;20261;-74
2022/09/10 11:42:23;;;;;;;0.00;0.00;;;19.90;99.90;;;;;;5031147;28;20234;-74
2022/09/10 11:45:00;;;;;;;0.00;0.00;;;19.80;99.90;;;;;;5016051;28;20234;-74
2022/09/10 11:47:32;;;;;;;0.00;0.00;;;19.70;99.90;;;;;;4990847;28;20254;-73
2022/09/10 11:50:05;;;;;;;0.00;0.00;;;19.90;99.90;;;;;;5034863;28;20634;-73
2022/09/10 11:52:39;;;;;;;0.00;0.00;;;20.00;99.90;;;;;;5034350;28;20245;-74
2022/09/10 11:55:13;;;;;;;0.00;0.00;;;20.20;99.90;;;;;;5035410;28;20233;-74
2022/09/10 11:58:00;;;;;;;0.00;0.00;;;19.80;99.90;;;;;;5039303;28;20217;-73
2022/09/10 12:00:32;;;;;;;0.00;0.00;;;19.80;99.90;;;;;;5039240;28;20191;-74
2022/09/10 12:03:32;;;;;;;0.00;0.00;;;19.70;99.90;;;;;;5053100;22;20226;-75
2022/09/10 12:06:06;;;;;;;0.00;0.00;;;19.60;99.90;;;;;;5054598;28;20195;-74
2022/09/10 12:08:54;;;;;;;0.00;0.00;;;19.80;99.90;;;;;;5054565;28;20201;-75
2022/09/10 12:11:28;;;;;;;0.00;0.00;;;20.10;99.90;;;;;;5034739;28;20191;-74
2022/09/10 12:13:57;;;;;;;0.00;0.00;;;19.90;99.90;;;;;;5034443;28;20281;-74
2022/09/10 12:16:34;;;;;;;0.00;0.00;;;19.80;99.90;;;;;;5034799;28;20195;-74
2022/09/10 12:19:07;;;;;;;0.00;0.00;;;19.70;99.90;;;;;;5034407;28;20257;-74
2022/09/10 12:21:38;;;;;;;0.00;0.00;;;19.50;99.90;;;;;;5034804;28;20223;-74
2022/09/10 12:24:26;;;;;;;0.00;0.00;;;19.10;99.90;;;;;;5033215;28;20230;-74
2022/09/10 12:26:55;;;;;;;0.00;0.00;;;18.90;99.90;;;;;;5034133;28;20225;-74
2022/09/10 12:29:29;;;;;;;0.00;0.00;;;18.70;99.90;;;;;;5034967;28;20613;-73
2022/09/10 12:32:36;;;;;;;0.00;0.00;;;18.50;99.90;;;;;;5034403;28;20233;-72
2022/09/10 12:35:40;;;;;;;0.00;0.00;;;18.20;99.90;;;;;;5033576;28;20281;-73
2022/09/10 12:38:45;;;;;;;0.00;0.00;;;17.80;99.90;;;;;;5007213;28;20207;-73
2022/09/10 12:41:53;;;;;;;0.00;0.00;;;17.60;99.90;;;;;;5016833;28;20285;-73
2022/09/10 12:44:51;;;;;;;0.00;0.00;;;17.40;99.90;;;;;;5034140;28;20273;-73
2022/09/10 12:47:41;;;;;;;0.00;0.00;;;17.20;99.90;;;;;;5033953;28;20211;-74
2022/09/10 12:50:28;;;;;;;0.00;0.00;;;17.10;99.90;;;;;;5034327;28;20206;-73
2022/09/10 12:53:20;;;;;;;0.00;0.00;;;17.10;99.90;;;;;;5033531;28;20207;-73
2022/09/10 12:55:59;;;;;;;0.00;0.00;;;17.20;99.90;;;;;;5034138;28;20670;-73
2022/09/10 12:58:52;;;;;;;0.00;0.00;;;17.30;99.90;;;;;;5033835;28;20252;-73
2022/09/10 13:01:36;;;;;;;0.00;0.00;;;17.40;99.90;;;;;;5033844;28;20249;-73
2022/09/10 13:04:04;;;;;;;0.00;0.00;;;17.50;99.90;;;;;;5033430;28;20234;-74
2022/09/10 13:06:37;;;;;;;0.00;0.00;;;17.90;99.90;;;;;;5033519;28;20195;-73
2022/09/10 13:09:16;;;;;;;0.00;0.00;;;18.30;99.90;;;;;;5032964;28;20237;-73
2022/09/10 13:11:47;;;;;;;0.00;0.00;;;18.60;99.90;;;;;;5033853;28;20258;-73
2022/09/10 13:14:21;;;;;;;0.00;0.00;;;19.20;99.90;;;;;;5033203;28;20223;-73
2022/09/10 13:16:49;;;;;;;0.00;0.00;;;19.00;99.90;;;;;;5040128;28;20256;-73
2022/09/10 13:19:50;;;;;;;0.00;0.00;;;18.90;99.90;;;;;;5051987;28;20245;-74